Airport Name : Boone Co

Other Name : Boone Co

ICAO : KHRO

IATA : HRO

FAA : HRO

Latitude : 36.261519

Longitude : -93.154728

Country : United States

Local Date and Time : 03 Dec 2020 04:28

 

TAF (Terminal Aerodrome Forecast)

KHRO 030852Z 0309/0406 10010KT 6SM -RA BR SCT010 OVC025 TEMPO 0309/0313 3SM -RASN BKN010 FM031300 10006KT 1SM -RA BR OVC007 FM031700 11005KT 6SM BR OVC007

 

METAR (METeorological Aerodrome Report)

KHRO 031023Z AUTO 12010KT 10SM BKN006 BKN037 OVC045 02/00 A3018 RMK AO2 RAE09UPB09E11 P0001 T00170000

KHRO 030953Z AUTO 12010KT 10SM -RA SCT008 BKN017 OVC041 02/01 A3020 RMK AO2 SNB24E34 SLP229 P0004 T00220006

KHRO 030936Z AUTO 14008KT 8SM -RA SCT008 OVC021 02/01 A3019 RMK AO2 SNB24E34 P0004 T00170006

KHRO 030922Z AUTO 13007KT 6SM RA BR OVC025 02/00 A3020 RMK AO2 P0003 T00170000

KHRO 030905Z AUTO 13007KT 10SM -RA OVC031 02/01 A3020 RMK AO2 P0000 T00220006

KHRO 030853Z AUTO 13007KT 6SM RA BR OVC027 02/00 A3020 RMK AO2 RAB0758 SLP230 P0005 60007 T00170000 55013

KHRO 030832Z AUTO 15008KT 6SM RA BR FEW017 OVC027 02/00 A3021 RMK AO2 RAB0758 P0003 T00220000

KHRO 030753Z AUTO 11008KT 10SM OVC043 04/01 A3020 RMK AO2 RAB09E35 SLP228 P0000 T00390011

KHRO 030653Z AUTO 12006KT 10SM FEW035 BKN043 OVC055 04/01 A3020 RMK AO2 RAE51 SLP230 P0002 T00390006

To Charter a Jet Click here.